Alpental, Washington
Current Conditions -  °F | °C
As of 10:53 AM on Friday 24 Oct 2014 (Local Time) from KRNT Reporting Station
Haze Haze  
Wind Chill: 52°   Ceiling: Unl
Heat Index: 52°   Visibility: 5mi
Dew Point: 49°   Wind: 5mph
Humidity: 89%   Direction: 310°NW
Pressure: 30.04"   Gusts: NA
Location:  47.4076°N, 121.414°W
Report Text: KRNT 241753Z 31004KT 5SM BR CLR 11/09 A3004 RMK AO2 SLP176 60000 T01110094 10111 20083 58003
Loading
Personal Weather Stations






























Interactive Weather Map
Tropical Storm Tracking
New forecast layout! Learn more

10-Day Weather Forecast

Advertisements
Track Severe Weather on mobile